createdAt,value
2019-01-19T00:05:26.661Z,56.40
2019-01-19T00:10:54.682Z,56.10
2019-01-19T00:16:08.383Z,56.10
2019-01-19T00:21:47.018Z,56.20
2019-01-19T00:27:14.261Z,56.10
2019-01-19T00:32:48.167Z,56.00
2019-01-19T00:38:08.281Z,56.20
2019-01-19T00:43:43.856Z,56.20
2019-01-19T00:49:07.612Z,56.30
2019-01-19T00:54:22.985Z,56.30
2019-01-19T00:59:35.873Z,56.40
2019-01-19T01:05:11.014Z,56.50
2019-01-19T01:10:48.605Z,56.30
2019-01-19T01:16:02.796Z,55.90
2019-01-19T01:21:31.023Z,56.00
2019-01-19T01:27:16.438Z,56.10
2019-01-19T01:32:34.145Z,56.20
2019-01-19T01:38:10.469Z,56.20
2019-01-19T01:43:40.946Z,56.30
2019-01-19T01:49:15.998Z,56.30
2019-01-19T01:54:56.330Z,56.10
2019-01-19T02:01:00.136Z,56.20
2019-01-19T02:06:29.121Z,56.20
2019-01-19T02:11:54.296Z,56.20
2019-01-19T02:17:44.657Z,56.30
2019-01-19T02:23:23.161Z,56.30
2019-01-19T02:29:05.091Z,56.30
2019-01-19T02:34:31.234Z,56.10
2019-01-19T02:40:18.872Z,56.10
2019-01-19T02:45:55.193Z,56.10
2019-01-19T02:51:09.569Z,56.00
2019-01-19T02:57:25.853Z,56.10
2019-01-19T03:03:04.924Z,56.10
2019-01-19T03:08:54.492Z,56.20
2019-01-19T03:14:26.194Z,56.20
2019-01-19T03:20:01.273Z,56.20
2019-01-19T03:25:56.257Z,56.20
2019-01-19T03:32:00.170Z,56.10
2019-01-19T03:37:32.057Z,56.10
2019-01-19T03:42:59.694Z,56.10
2019-01-19T03:49:12.557Z,56.10
2019-01-19T03:55:13.882Z,56.00
2019-01-19T04:00:26.974Z,56.10
2019-01-19T04:05:49.938Z,56.00
2019-01-19T04:11:33.342Z,56.10
2019-01-19T04:17:26.831Z,56.10
2019-01-19T04:22:43.868Z,56.00
2019-01-19T04:27:48.888Z,56.00
2019-01-19T04:32:53.849Z,55.90
2019-01-19T04:37:58.927Z,56.00
2019-01-19T04:43:03.777Z,56.10
2019-01-19T04:48:09.050Z,56.10
2019-01-19T04:53:14.129Z,56.20
2019-01-19T04:58:18.982Z,56.30
2019-01-19T05:03:24.097Z,56.30
2019-01-19T05:08:29.248Z,56.20
2019-01-19T05:13:34.025Z,56.10
2019-01-19T05:18:38.736Z,56.10
2019-01-19T05:23:43.619Z,55.90
2019-01-19T05:28:48.348Z,55.90
2019-01-19T05:33:53.361Z,56.10
2019-01-19T05:38:58.160Z,56.20
2019-01-19T05:44:03.238Z,56.30
2019-01-19T05:49:08.494Z,56.40
2019-01-19T05:54:13.286Z,56.40
2019-01-19T05:59:18.631Z,56.30
2019-01-19T06:04:23.743Z,56.10
2019-01-19T06:09:28.866Z,56.20
2019-01-19T06:14:33.817Z,56.20
2019-01-19T06:19:39.225Z,56.10
2019-01-19T06:24:44.002Z,56.10
2019-01-19T06:29:48.726Z,56.10
2019-01-19T06:34:53.533Z,56.00
2019-01-19T06:39:58.683Z,56.00
2019-01-19T06:45:03.578Z,55.90
2019-01-19T06:50:09.828Z,55.90
2019-01-19T06:55:17.062Z,55.90
2019-01-19T07:00:21.825Z,56.00
2019-01-19T07:05:26.717Z,55.90
2019-01-19T07:10:31.549Z,55.90
2019-01-19T07:15:36.701Z,55.90
2019-01-19T07:20:41.674Z,55.90
2019-01-19T07:25:46.802Z,55.90
2019-01-19T07:30:51.725Z,55.90
2019-01-19T07:35:56.620Z,55.90
2019-01-19T07:41:01.653Z,55.90
2019-01-19T07:46:08.325Z,55.80
2019-01-19T07:51:13.405Z,55.70
2019-01-19T07:56:18.239Z,55.80
2019-01-19T08:01:23.429Z,55.80
2019-01-19T08:06:28.220Z,55.80
2019-01-19T08:11:33.330Z,55.90
2019-01-19T08:16:38.153Z,56.00
2019-01-19T08:21:43.051Z,56.20
2019-01-19T08:26:48.178Z,56.50
2019-01-19T08:31:55.172Z,56.70
2019-01-19T08:37:00.114Z,56.90
2019-01-19T08:42:05.366Z,57.10
2019-01-19T08:47:10.825Z,57.10
2019-01-19T08:52:15.716Z,57.00
2019-01-19T08:57:20.774Z,57.00
2019-01-19T09:02:25.689Z,57.10
2019-01-19T09:07:33.854Z,57.10
2019-01-19T09:12:37.423Z,57.20
2019-01-19T09:17:42.413Z,57.30
2019-01-19T09:22:53.337Z,57.40
2019-01-19T09:27:58.182Z,57.50
2019-01-19T09:33:03.452Z,57.40
2019-01-19T09:38:08.382Z,57.50
2019-01-19T09:43:13.597Z,57.50
2019-01-19T09:48:18.556Z,57.60
2019-01-19T09:53:23.382Z,57.60
2019-01-19T09:58:29.718Z,57.50
2019-01-19T10:03:39.298Z,57.50
2019-01-19T10:08:44.288Z,57.50
2019-01-19T10:13:49.754Z,57.60
2019-01-19T10:18:54.774Z,57.90
2019-01-19T10:23:59.633Z,57.90
2019-01-19T10:29:05.563Z,57.90
2019-01-19T10:34:10.484Z,58.10
2019-01-19T10:39:15.477Z,58.10
2019-01-19T10:44:20.437Z,58.90
2019-01-19T10:49:25.284Z,58.20
2019-01-19T10:54:31.390Z,58.30
2019-01-19T10:59:36.428Z,58.40
2019-01-19T11:04:41.170Z,58.40
2019-01-19T11:09:46.276Z,58.40
2019-01-19T11:14:51.111Z,58.40
2019-01-19T11:19:56.496Z,58.10
2019-01-19T11:25:01.581Z,58.10
2019-01-19T11:30:10.034Z,58.00
2019-01-19T11:35:15.428Z,58.10
2019-01-19T11:40:22.662Z,57.90
2019-01-19T11:45:27.751Z,57.00
2019-01-19T11:50:32.681Z,56.60
2019-01-19T11:55:40.948Z,56.30
2019-01-19T12:00:47.185Z,55.80
2019-01-19T12:05:52.098Z,56.00
2019-01-19T12:10:56.888Z,55.60
2019-01-19T12:16:01.645Z,56.00
2019-01-19T12:21:06.613Z,55.50
2019-01-19T12:26:11.766Z,54.90
2019-01-19T12:31:16.987Z,54.30
2019-01-19T12:36:21.871Z,55.10
2019-01-19T12:41:28.022Z,55.00
2019-01-19T12:46:33.509Z,54.90
2019-01-19T12:51:38.898Z,55.30
2019-01-19T12:56:44.057Z,55.00
2019-01-19T13:01:49.185Z,55.30
2019-01-19T13:07:14.535Z,55.70
2019-01-19T13:12:29.477Z,55.00
2019-01-19T13:17:50.426Z,55.40
2019-01-19T13:23:44.968Z,55.50
2019-01-19T13:29:09.092Z,55.30
2019-01-19T13:34:51.448Z,55.40
2019-01-19T13:40:07.073Z,54.60
2019-01-19T13:45:57.334Z,55.00
2019-01-19T13:51:26.172Z,55.20
2019-01-19T13:57:05.490Z,55.60
2019-01-19T14:02:56.221Z,55.30
2019-01-19T14:08:36.853Z,55.20
2019-01-19T14:14:24.453Z,54.60
2019-01-19T14:19:55.852Z,54.40
2019-01-19T14:25:33.133Z,54.40
2019-01-19T14:31:13.993Z,54.30
2019-01-19T14:37:11.218Z,54.30
2019-01-19T14:42:26.684Z,54.60
2019-01-19T14:47:42.031Z,54.80
2019-01-19T14:53:36.952Z,54.80
2019-01-19T14:59:13.146Z,54.80
2019-01-19T15:05:02.461Z,54.70
2019-01-19T15:11:03.373Z,54.90
2019-01-19T15:16:51.049Z,54.90
2019-01-19T15:22:32.276Z,54.90
2019-01-19T15:28:12.627Z,54.80
2019-01-19T15:34:00.721Z,54.90
2019-01-19T15:39:34.729Z,54.80
2019-01-19T15:45:11.437Z,54.90
2019-01-19T15:50:57.021Z,55.00
2019-01-19T15:56:18.731Z,55.00
2019-01-19T16:01:50.549Z,55.00
2019-01-19T16:07:54.429Z,55.00
2019-01-19T16:13:16.018Z,55.00
2019-01-19T16:19:19.929Z,55.10
2019-01-19T16:24:50.994Z,55.30
2019-01-19T16:30:20.986Z,55.30
2019-01-19T16:36:10.346Z,55.20
2019-01-19T16:42:04.192Z,55.20
2019-01-19T16:47:31.614Z,55.20
2019-01-19T16:52:56.370Z,55.20
2019-01-19T16:58:54.867Z,55.20
2019-01-19T17:04:21.741Z,55.20
2019-01-19T17:09:39.692Z,55.10
2019-01-19T17:15:15.499Z,54.90
2019-01-19T17:21:10.390Z,54.90
2019-01-19T17:27:04.266Z,55.00
2019-01-19T17:32:41.456Z,55.00
2019-01-19T17:38:27.117Z,55.00
2019-01-19T17:44:05.014Z,55.00
2019-01-19T17:49:31.443Z,54.90
2019-01-19T17:55:18.718Z,54.90
2019-01-19T18:01:00.093Z,54.90
2019-01-19T18:06:31.096Z,54.80
2019-01-19T18:11:51.889Z,54.70
2019-01-19T18:17:46.249Z,54.50
2019-01-19T18:23:16.063Z,54.60
2019-01-19T18:29:08.326Z,54.70
2019-01-19T18:34:42.730Z,54.90
2019-01-19T18:40:19.917Z,54.80
2019-01-19T18:45:56.394Z,54.80
2019-01-19T18:51:41.063Z,54.90
2019-01-19T18:57:33.481Z,54.90
2019-01-19T19:02:57.611Z,55.00
2019-01-19T19:08:40.008Z,54.90
2019-01-19T19:14:42.611Z,55.00
2019-01-19T19:20:22.076Z,55.00
2019-01-19T19:26:14.266Z,55.00
2019-01-19T19:31:42.730Z,55.00
2019-01-19T19:36:55.811Z,54.70
2019-01-19T19:42:18.999Z,54.80
2019-01-19T19:47:59.738Z,54.90
2019-01-19T19:53:04.972Z,54.80
2019-01-19T19:58:10.423Z,54.70
2019-01-19T20:03:15.550Z,54.70
2019-01-19T20:08:20.889Z,54.80
2019-01-19T20:13:25.925Z,54.90
2019-01-19T20:18:30.878Z,54.80
2019-01-19T20:23:35.815Z,54.90
2019-01-19T20:28:40.760Z,55.00
2019-01-19T20:33:45.764Z,55.10
2019-01-19T20:38:50.628Z,55.00
2019-01-19T20:43:55.462Z,55.00
2019-01-19T20:49:00.551Z,54.80
2019-01-19T20:54:05.625Z,54.60
2019-01-19T20:59:10.824Z,54.80
2019-01-19T21:04:18.597Z,54.80
2019-01-19T21:09:23.940Z,54.90
2019-01-19T21:14:28.732Z,55.00
2019-01-19T21:19:33.908Z,54.80
2019-01-19T21:24:40.036Z,54.90
2019-01-19T21:29:45.135Z,55.00
2019-01-19T21:34:50.030Z,55.10
2019-01-19T21:39:54.757Z,55.00
2019-01-19T21:44:59.745Z,55.00
2019-01-19T21:50:05.518Z,55.00
2019-01-19T21:55:10.474Z,55.10
2019-01-19T22:00:16.861Z,55.00
2019-01-19T22:05:21.883Z,55.10
2019-01-19T22:10:27.935Z,55.00
2019-01-19T22:15:32.735Z,55.00
2019-01-19T22:20:37.604Z,55.00
2019-01-19T22:25:42.329Z,55.00
2019-01-19T22:30:47.535Z,55.10
2019-01-19T22:35:52.568Z,55.00
2019-01-19T22:40:57.356Z,54.90
2019-01-19T22:46:02.370Z,54.80
2019-01-19T22:51:11.386Z,54.90
2019-01-19T22:56:14.092Z,54.90
2019-01-19T23:01:49.335Z,54.90
2019-01-19T23:06:54.205Z,54.90
2019-01-19T23:11:59.636Z,54.90
2019-01-19T23:17:05.515Z,54.90
2019-01-19T23:22:10.327Z,54.90
2019-01-19T23:27:15.171Z,54.90
2019-01-19T23:32:21.396Z,54.80
2019-01-19T23:37:26.610Z,54.90
2019-01-19T23:42:32.029Z,54.80
2019-01-19T23:47:37.244Z,54.70
2019-01-19T23:52:46.685Z,54.70
2019-01-19T23:58:09.201Z,54.70
